Flight Track Log - Related Links

Times and Time Zones

All times are in EDT time to prevent confusion due to time zone crossing. See the N860BA flight status page for this flight to view local times or setup timezone preferences in your user account.

Time Position Orientation Groundspeed Altitude Reporting Facility
EDT Latitude Longitude Course Direction KTS MPH feet Rate Location/Type
Sat 11:38:41 AM 40.8667 -72.6000 49° Northeast 161 185 700  Level New York TRACON
Sat 11:39:41 AM 40.9000 -72.5500 49° Northeast 222 255 3,200 2,150 Climbing New York TRACON
Sat 11:40:41 AM 40.9500 -72.6167 315° West 295 339 5,000 1,158 Climbing New York TRACON
Sat 11:41:35 AM 40.9167 -72.7000 242° Southwest 325 374 5,400 1,579 Climbing New York TRACON
Sat 11:42:35 AM 40.8667 -72.8000 237° Southwest 326 375 8,000 1,286 Climbing New York TRACON
Sat 11:43:41 AM 40.8500 -72.9333 261° West 317 365 8,100 50 Climbing New York TRACON
Sat 11:44:35 AM 40.8333 -73.0333 258° West 298 343 8,100 550 Level New York TRACON
Sat 11:45:41 AM 40.8167 -73.1500 259° West 316 364 9,200 1,000 Climbing New York TRACON
Sat 11:46:41 AM 40.8333 -73.2833 279° West 359 413 10,200 2,000 Climbing New York TRACON
Sat 11:47:41 AM 40.8833 -73.3833 304° West 365 420 13,200 3,000 Climbing New York TRACON
Sat 11:48:41 AM 40.9500 -73.5000 307° West 348 400 16,200 1,425 Climbing New York TRACON
Sat 11:50:21 AM 40.9814 -73.7122 281° West 387 445 17,000 300 Climbing New York Center
Sat 11:51:21 AM 41.0083 -73.8756 282° West 410 472 17,000  Level New York Center
Sat 11:52:21 AM 41.0275 -74.0111 281° West 416 479 17,000 250 Level New York Center
Sat 11:53:21 AM 41.0564 -74.1750 283° West 416 479 17,500 600 Climbing New York Center
Sat 11:54:21 AM 41.0792 -74.3164 282° West 430 495 18,200 1,250 Climbing New York Center
Sat 11:55:21 AM 41.1036 -74.4719 282° West 437 503 20,000 1,850 Climbing New York Center
Sat 11:56:21 AM 41.1258 -74.6244 281° West 431 496 21,900 1,950 Climbing New York Center
Sat 11:57:21 AM 41.1647 -74.7672 290° West 425 489 23,900 1,950 Climbing New York Center
Sat 11:58:21 AM 41.2228 -74.8950 301° West 412 474 25,800 1,700 Climbing New York Center
Sat 11:59:21 AM 41.2825 -75.0367 299° West 407 468 27,300 1,150 Climbing New York Center
Sat 12:00:21 PM 41.3381 -75.1672 300° West 407 468 28,100 750 Climbing New York Center
Sat 12:01:21 PM 41.3975 -75.3011 301° West 412 474 28,800 700 Climbing New York Center
Sat 12:02:21 PM 41.4225 -75.4606 282° West 425 489 29,500 700 Climbing New York Center
Sat 12:03:21 PM 41.4411 -75.6222 279° West 431 496 30,200 700 Climbing New York Center
Sat 12:04:21 PM 41.4589 -75.7925 278° West 451 519 30,900 700 Climbing New York Center
Sat 12:05:21 PM 41.4792 -75.9544 280° West 451 519 31,600 650 Climbing New York Center
Sat 12:06:21 PM 41.4992 -76.1111 280° West 445 512 32,200 600 Climbing New York Center
Sat 12:07:21 PM 41.5208 -76.2764 280° West 445 512 32,800 650 Climbing New York Center
Sat 12:08:21 PM 41.5347 -76.4244 277° West 455 524 33,500 700 Climbing New York Center
Sat 12:09:21 PM 41.5519 -76.5867 278° West 450 518 34,200 700 Climbing New York Center
Sat 12:10:21 PM 41.5683 -76.7600 277° West 445 512 34,900 584 Climbing New York Center
Sat 12:12:26 PM 41.6044 -77.0842 279° West 434 499 36,000 481 Climbing Cleveland Center
Sat 12:13:28 PM 41.6217 -77.2400 278° West 434 499 36,400 435 Climbing Cleveland Center
Sat 12:14:30 PM 41.6375 -77.3992 278° West 432 497 36,900 435 Climbing Cleveland Center
Sat 12:15:32 PM 41.6542 -77.5603 278° West 438 504 37,300 488 Climbing Cleveland Center
Sat 12:16:33 PM 41.6725 -77.7478 278° West 430 495 37,900 341 Climbing Cleveland Center
Sat 12:17:35 PM 41.6875 -77.9036 277° West 427 491 38,000 48 Climbing Cleveland Center
Sat 12:18:37 PM 41.7022 -78.0606 277° West 431 496 38,000  Level Cleveland Center
Sat 12:19:39 PM 41.7178 -78.2178 278° West 432 497 38,000  Level Cleveland Center
Sat 12:20:41 PM 41.7328 -78.3758 277° West 434 499 38,000  Level Cleveland Center
Sat 12:21:43 PM 41.7497 -78.5658 277° West 434 499 38,000  Level Cleveland Center
Sat 12:22:45 PM 41.7636 -78.7244 277° West 435 501 38,000  Level Cleveland Center
Sat 12:23:47 PM 41.7786 -78.8831 277° West 435 501 38,000  Level Cleveland Center
Sat 12:24:49 PM 41.7950 -79.0647 277° West 443 510 38,000  Level Cleveland Center
Sat 12:25:51 PM 41.8092 -79.2264 277° West 439 505 38,000  Level Cleveland Center
Sat 12:26:53 PM 41.8236 -79.3975 277° West 438 504 38,000  Level Cleveland Center
Sat 12:27:55 PM 41.8361 -79.5597 276° West 440 506 38,000  Level Cleveland Center
Sat 12:28:57 PM 41.8492 -79.7308 276° West 447 514 38,000  Level Cleveland Center
Sat 12:29:59 PM 41.8633 -79.8950 277° West 441 507 38,000  Level Cleveland Center
Sat 12:31:01 PM 41.8756 -80.0600 276° West 441 507 38,000  Level Cleveland Center
Sat 12:32:03 PM 41.8883 -80.2242 276° West 440 506 38,000  Level Cleveland Center
Sat 12:33:05 PM 41.9006 -80.3886 276° West 441 507 38,000  Level Cleveland Center
Sat 12:34:07 PM 41.9156 -80.5831 276° West 444 511 38,000  Level Cleveland Center
Sat 12:35:09 PM 41.9272 -80.7472 276° West 441 507 38,000  Level Cleveland Center
Sat 12:36:11 PM 41.9394 -80.9139 276° West 445 512 38,000  Level Cleveland Center
Sat 12:37:13 PM 41.9506 -81.0789 275° West 442 509 38,000  Level Cleveland Center
Sat 12:38:15 PM 41.9628 -81.2439 276° West 442 509 38,000 48 Level Cleveland Center
Sat 12:39:17 PM 41.9733 -81.4089 275° West 442 509 38,100 194 Climbing Cleveland Center
Sat 12:40:19 PM 41.9842 -81.5731 275° West 440 506 38,400 290 Climbing Cleveland Center
Sat 12:41:21 PM 41.9969 -81.7642 275° West 440 506 38,700 290 Climbing Cleveland Center
Sat 12:42:23 PM 42.0064 -81.9264 275° West 435 501 39,000 290 Climbing Cleveland Center
Sat 12:43:25 PM 42.0167 -82.0883 275° West 434 499 39,300 290 Climbing Cleveland Center
Sat 12:44:27 PM 42.0264 -82.2444 275° West 432 497 39,600 242 Climbing Cleveland Center
Sat 12:45:29 PM 42.0353 -82.4056 274° West 432 497 39,800 194 Climbing Cleveland Center
Sat 12:46:31 PM 42.0442 -82.5653 274° West 432 497 40,000 97 Climbing Cleveland Center
Sat 12:47:33 PM 42.0547 -82.7594 274° West 434 499 40,000  Level Cleveland Center
Sat 12:48:35 PM 42.0642 -82.9208 275° West 434 499 40,000  Level Cleveland Center
Sat 12:49:37 PM 42.0717 -83.0811 274° West 431 496 40,000  Level Cleveland Center
Sat 12:50:39 PM 42.0800 -83.2494 274° West 433 498 40,000  Level Cleveland Center
Sat 12:51:41 PM 42.0872 -83.4114 273° West 431 496 40,000  Level Cleveland Center
Sat 12:52:43 PM 42.0956 -83.5714 274° West 435 501 40,000 48 Level Cleveland Center
Sat 12:53:45 PM 42.1039 -83.7339 274° West 431 496 40,100  Climbing Cleveland Center
Sat 12:54:47 PM 42.1111 -83.8947 274° West 428 493 40,000 -48 Descending Cleveland Center
Sat 12:55:49 PM 42.1200 -84.0883 274° West 429 494 40,000  Level Cleveland Center
Sat 12:56:51 PM 42.1261 -84.2497 273° West 433 498 40,000  Level Cleveland Center
Sat 12:57:53 PM 42.1339 -84.3931 274° West 433 498 40,000  Level Cleveland Center
Sat 12:58:55 PM 42.1397 -84.5728 273° West 432 497 40,000  Level Cleveland Center
Sat 12:59:57 PM 42.1478 -84.7472 274° West 435 501 40,000  Level Cleveland Center
Sat 01:00:59 PM 42.1544 -84.9089 273° West 437 503 40,000  Level Cleveland Center
Sat 01:02:01 PM 42.1603 -85.0703 273° West 437 503 40,000  Level Cleveland Center
Sat 01:03:03 PM 42.1658 -85.2319 273° West 436 502 40,000  Level Cleveland Center
Sat 01:04:05 PM 42.1719 -85.4272 272° West 442 509 40,000  Level Cleveland Center
Sat 01:05:07 PM 42.1761 -85.5894 272° West 439 505 40,000  Level Cleveland Center
Sat 01:06:09 PM 42.1806 -85.7533 272° West 442 509 40,000  Level Cleveland Center
Sat 01:07:11 PM 42.1850 -85.9186 272° West 443 510 40,000  Level Cleveland Center
Sat 01:08:13 PM 42.1892 -86.1053 272° West 445 512 40,000  Level Cleveland Center
Sat 01:09:14 PM 42.1931 -86.2722 272° West 445 512 40,000  Level Cleveland Center
Sat 01:10:44 PM 42.1969 -86.5175 271° West 449 517 40,000  Level Chicago Center
Sat 01:11:46 PM 42.2017 -86.6889 272° West 449 517 40,000  Level Chicago Center
Sat 01:12:48 PM 42.2064 -86.8567 272° West 455 524 40,000  Level Chicago Center
Sat 01:13:50 PM 42.2097 -87.0256 272° West 456 525 40,000  Level Chicago Center
Sat 01:14:52 PM 42.2108 -87.2236 271° West 447 514 40,000  Level Chicago Center
Sat 01:15:53 PM 42.2142 -87.3914 272° West 452 520 40,000  Level Chicago Center
Sat 01:16:55 PM 42.2161 -87.5597 271° West 453 521 40,000  Level Chicago Center
Sat 01:17:57 PM 42.2175 -87.7269 271° West 451 519 40,000  Level Chicago Center
Sat 01:18:59 PM 42.2194 -87.8950 271° West 453 521 40,000  Level Chicago Center
Sat 01:20:01 PM 42.1950 -88.0942 261° West 463 533 40,000  Level Chicago Center
Sat 01:21:03 PM 42.1656 -88.2631 257° West 469 540 40,000  Level Chicago Center
Sat 01:22:05 PM 42.1358 -88.4336 257° West 473 544 40,000  Level Chicago Center
Sat 01:23:07 PM 42.1058 -88.6003 256° West 465 535 40,000  Level Chicago Center
Sat 01:24:09 PM 42.0756 -88.7678 256° West 464 534 40,000  Level Chicago Center
Sat 01:25:11 PM 42.0386 -88.9686 256° West 466 536 40,000  Level Chicago Center
Sat 01:26:13 PM 42.0081 -89.1367 256° West 467 537 40,000  Level Chicago Center
Sat 01:27:15 PM 41.9772 -89.3044 256° West 467 537 40,000  Level Chicago Center
Sat 01:28:17 PM 41.9450 -89.4717 256° West 466 536 40,000  Level Chicago Center
Sat 01:29:19 PM 41.9142 -89.6381 256° West 464 534 40,000  Level Chicago Center
Sat 01:30:21 PM 41.8744 -89.8397 255° West 468 539 40,000  Level Chicago Center
Sat 01:31:23 PM 41.8481 -89.9875 257° West 465 535 40,000  Level Chicago Center
Sat 01:32:24 PM 41.8089 -90.1878 255° West 466 536 40,000  Level Chicago Center
Sat 01:33:26 PM 41.7733 -90.3633 255° West 478 550 40,000  Level Chicago Center
Sat 01:34:28 PM 41.7403 -90.5297 255° West 468 539 40,000  Level Chicago Center
Sat 01:35:30 PM 41.7083 -90.6911 255° West 464 534 40,000  Level Chicago Center
Sat 01:36:32 PM 41.6744 -90.8578 255° West 466 536 40,000  Level Chicago Center
Sat 01:37:34 PM 41.6397 -91.0258 255° West 469 540 40,000  Level Chicago Center
Sat 01:38:36 PM 41.5989 -91.2250 255° West 467 537 40,000  Level Chicago Center
Sat 01:39:38 PM 41.5650 -91.3900 255° West 464 534 40,000  Level Chicago Center
Sat 01:40:40 PM 41.5308 -91.5567 255° West 466 536 40,000  Level Chicago Center
Sat 01:41:42 PM 41.5150 -91.7217 263° West 456 525 40,000  Level Chicago Center
Sat 01:42:44 PM 41.5106 -91.8878 268° West 452 520 40,000  Level Chicago Center
Sat 01:43:46 PM 41.5025 -92.0869 267° West 451 519 40,000  Level Chicago Center
Sat 01:44:48 PM 41.4972 -92.2508 268° West 445 512 40,000  Level Chicago Center
Sat 01:45:50 PM 41.4744 -92.4203 260° West 446 513 40,000  Level Chicago Center
Sat 01:46:51 PM 41.4461 -92.5825 257° West 453 521 40,000  Level Chicago Center
Sat 01:47:53 PM 41.4181 -92.7447 257° West 454 522 40,000  Level Chicago Center
Sat 01:48:49 PM 41.3908 -92.9083 258° West 456 525 40,000  Level Minneapolis Center
Sat 01:49:51 PM 41.3767 -93.0711 263° West 451 519 40,000  Level Minneapolis Center
Sat 01:50:53 PM 41.3625 -93.2347 263° West 450 518 40,000  Level Minneapolis Center
Sat 01:51:55 PM 41.3497 -93.3672 263° West 453 521 40,000  Level Minneapolis Center
Sat 01:52:57 PM 41.3289 -93.5931 263° West 446 513 40,000  Level Minneapolis Center
Sat 01:53:59 PM 41.3142 -93.7567 263° West 448 516 40,000  Level Minneapolis Center
Sat 01:55:01 PM 41.2969 -93.9214 262° West 453 521 40,000  Level Minneapolis Center
Sat 01:56:03 PM 41.2806 -94.0844 262° West 451 519 40,000  Level Minneapolis Center
Sat 01:57:05 PM 41.2608 -94.2725 262° West 451 519 40,000  Level Minneapolis Center
Sat 01:58:07 PM 41.2431 -94.4378 262° West 452 520 40,000  Level Minneapolis Center
Sat 01:59:09 PM 41.2269 -94.6014 263° West 449 517 40,000  Level Minneapolis Center
Sat 02:00:24 PM 41.2083 -94.7661 262° West 449 517 40,000  Level Minneapolis Center
Sat 02:01:26 PM 41.1850 -94.9617 261° West 448 516 40,000  Level Minneapolis Center
Sat 02:02:28 PM 41.1669 -95.1244 262° West 446 513 40,000  Level Minneapolis Center
Sat 02:03:30 PM 41.1442 -95.3214 261° West 450 518 40,000  Level Minneapolis Center
Sat 02:04:32 PM 41.1256 -95.4869 262° West 452 520 40,000  Level Minneapolis Center
Sat 02:05:34 PM 41.1053 -95.6511 261° West 451 519 40,000  Level Minneapolis Center
Sat 02:06:36 PM 41.0847 -95.8144 261° West 447 514 40,000  Level Minneapolis Center
Sat 02:07:38 PM 41.0642 -95.9814 261° West 451 519 40,000  Level Minneapolis Center
Sat 02:08:40 PM 41.0456 -96.1475 262° West 451 519 40,000  Level Minneapolis Center
Sat 02:09:42 PM 41.0264 -96.3125 261° West 451 519 40,000  Level Minneapolis Center
Sat 02:10:44 PM 41.0017 -96.5103 261° West 451 519 40,000  Level Minneapolis Center
Sat 02:11:46 PM 40.9817 -96.6747 261° West 452 520 40,000  Level Minneapolis Center
Sat 02:12:48 PM 40.9589 -96.8400 260° West 455 524 40,000  Level Minneapolis Center
Sat 02:13:50 PM 40.9389 -97.0058 261° West 456 525 40,000  Level Minneapolis Center
Sat 02:15:04 PM 40.9181 -97.1717 261° West 457 526 40,000  Level Minneapolis Center
Sat 02:16:06 PM 40.8886 -97.3950 260° West 460 529 40,000  Level Minneapolis Center
Sat 02:17:08 PM 40.8669 -97.5606 260° West 458 527 40,000  Level Minneapolis Center
Sat 02:18:10 PM 40.8439 -97.7256 260° West 457 526 40,000  Level Minneapolis Center
Sat 02:19:13 PM 40.8219 -97.8919 260° West 457 526 40,000  Level Minneapolis Center
Sat 02:20:15 PM 40.7983 -98.0572 259° West 458 527 40,000  Level Minneapolis Center
Sat 02:21:17 PM 40.7753 -98.2217 260° West 456 525 40,000  Level Minneapolis Center
Sat 02:22:19 PM 40.7522 -98.3869 260° West 455 524 40,000  Level Minneapolis Center
Sat 02:23:21 PM 40.7239 -98.5858 259° West 455 524 40,000  Level Minneapolis Center
Sat 02:24:23 PM 40.7008 -98.7522 260° West 456 525 40,000  Level Minneapolis Center
Sat 02:25:24 PM 40.6808 -98.8850 259° West 458 527 40,000  Level Minneapolis Center
Sat 02:26:27 PM 40.6525 -99.0836 259° West 458 527 40,000  Level Minneapolis Center
Sat 02:27:29 PM 40.6286 -99.2469 259° West 455 524 40,000  Level Minneapolis Center
Sat 02:28:31 PM 40.6050 -99.4089 259° West 453 521 40,000  Level Minneapolis Center
Sat 02:29:33 PM 40.5806 -99.5714 259° West 451 519 40,000  Level Minneapolis Center
Sat 02:30:35 PM 40.5561 -99.7317 259° West 448 516 40,000  Level Minneapolis Center
Sat 02:31:37 PM 40.5261 -99.9239 258° West 447 514 40,000  Level Minneapolis Center
Sat 02:32:39 PM 40.5003 -100.0839 258° West 446 513 40,000  Level Minneapolis Center
Sat 02:33:41 PM 40.4764 -100.2450 259° West 448 516 40,000  Level Minneapolis Center
Sat 02:34:42 PM 40.4514 -100.4056 258° West 448 516 40,000  Level Minneapolis Center
Sat 02:35:44 PM 40.4317 -100.5325 259° West 447 514 40,000  Level Minneapolis Center
Sat 02:36:49 PM 40.3953 -100.7372 257° West 438 504 40,000  Level Denver Center
Sat 02:37:51 PM 40.3703 -100.8872 258° West 437 503 40,000  Level Denver Center
Sat 02:38:53 PM 40.3417 -101.0611 258° West 436 502 40,000  Level Denver Center
Sat 02:39:55 PM 40.3172 -101.2108 258° West 436 502 40,000  Level Denver Center
Sat 02:40:56 PM 40.2867 -101.3842 257° West 436 502 40,000  Level Denver Center
Sat 02:41:58 PM 40.2625 -101.5331 258° West 435 501 40,000  Level Denver Center
Sat 02:43:00 PM 40.2314 -101.7064 257° West 438 504 40,000  Level Denver Center
Sat 02:44:02 PM 40.2058 -101.8561 257° West 439 505 40,000  Level Denver Center
Sat 02:45:04 PM 40.1806 -102.0072 258° West 442 509 40,000  Level Denver Center
Sat 02:46:06 PM 40.1497 -102.1803 257° West 439 505 40,000  Level Denver Center
Sat 02:47:07 PM 40.1225 -102.3283 257° West 438 504 40,000  Level Denver Center
Sat 02:48:09 PM 40.0917 -102.5000 257° West 436 502 40,000  Level Denver Center
Sat 02:49:11 PM 40.0636 -102.6475 256° West 437 503 40,000  Level Denver Center
Sat 02:50:13 PM 40.0369 -102.8069 258° West 437 503 40,000  Level Denver Center
Sat 02:51:26 PM 40.0083 -102.9583 256° West 434 499 40,000  Level Denver Center
Sat 02:52:29 PM 39.9742 -103.1433 257° West 436 502 40,000  Level Denver Center
Sat 02:53:30 PM 39.9403 -103.3264 256° West 436 502 40,000  Level Denver Center
Sat 02:54:32 PM 39.9106 -103.4789 256° West 434 499 40,000  Level Denver Center
Sat 02:55:34 PM 39.8822 -103.6325 257° West 437 503 40,000  Level Denver Center
Sat 02:56:36 PM 39.8547 -103.7883 257° West 444 511 40,000  Level Denver Center
Sat 02:57:50 PM 39.8189 -103.9681 256° West 432 497 40,000  Level Denver Center
Sat 02:58:52 PM 39.7894 -104.1178 256° West 428 493 40,000  Level Denver Center
Sat 03:00:06 PM 39.7481 -104.3286 256° West 435 501 40,000  Level Denver Center
Sat 03:01:08 PM 39.7186 -104.4775 256° West 429 494 40,000  Level Denver Center
Sat 03:02:09 PM 39.6967 -104.5944 256° West 425 489 40,000  Level Denver Center
Sat 03:03:11 PM 39.6289 -104.7414 239° Southwest 434 499 40,000  Level Denver Center
Sat 03:04:13 PM 39.5497 -104.9056 238° Southwest 427 491 40,000  Level Denver Center
Sat 03:05:15 PM 39.4853 -105.0336 237° Southwest 428 493 40,000 -48 Level Denver Center
Sat 03:06:17 PM 39.4219 -105.1600 237° Southwest 424 488 39,900 -585 Descending Denver Center
Sat 03:07:18 PM 39.3728 -105.2572 237° Southwest 413 475 38,800 -1,511 Descending Denver Center
Sat 03:08:32 PM 39.2975 -105.4053 237° Southwest 411 473 36,500 -1,824 Descending Denver Center
Sat 03:09:46 PM 39.2217 -105.5575 237° Southwest 417 480 34,300 -2,118 Descending Denver Center
Sat 03:10:48 PM 39.1342 -105.7294 237° Southwest 410 472 31,700 -2,177 Descending Denver Center
Sat 03:11:50 PM 39.0719 -105.8506 237° Southwest 406 467 29,800 -1,790 Descending Denver Center
Sat 03:12:52 PM 39.0158 -105.9764 240° Southwest 408 470 28,000 -1,790 Descending Denver Center
Sat 03:13:54 PM 38.9725 -106.1100 247° West 408 470 26,100 -1,951 Descending Denver Center
Sat 03:14:55 PM 38.9242 -106.2522 246° West 401 461 24,000 -1,822 Descending Denver Center
Sat 03:16:09 PM 38.8783 -106.3872 246° West 394 453 22,000 -1,765 Descending Denver Center
Sat 03:17:11 PM 38.8306 -106.5194 245° Southwest 396 456 20,000 -2,081 Descending Denver Center
Sat 03:18:13 PM 38.7572 -106.6469 234° Southwest 373 429 17,700 -1,854 Descending Denver Center
Sat 03:19:14 PM 38.6972 -106.7469 232° Southwest 363 418 16,200 -1,171 Descending Denver Center
Sat 03:20:16 PM 38.6428 -106.8328 231° Southwest 328 377 15,300 -871 Descending Denver Center

Login

Don't have an account? Register now (free) for customized features, flight alerts, and more!